sensor_id;sensor_type;location;lat;lon;timestamp;P1;durP1;ratioP1;P2;durP2;ratioP2
19800;SDS011;10060;48.274;12.214;2022-09-01T00:01:16;27.27;;;21.55;;
19800;SDS011;10060;48.274;12.214;2022-09-01T00:04:22;30.17;;;21.80;;
19800;SDS011;10060;48.274;12.214;2022-09-01T00:07:26;29.10;;;22.00;;
19800;SDS011;10060;48.274;12.214;2022-09-01T00:10:29;28.33;;;21.83;;
19800;SDS011;10060;48.274;12.214;2022-09-01T00:13:31;30.02;;;22.75;;
19800;SDS011;10060;48.274;12.214;2022-09-01T00:16:33;31.65;;;23.33;;
19800;SDS011;10060;48.274;12.214;2022-09-01T00:19:37;33.45;;;23.33;;
19800;SDS011;10060;48.274;12.214;2022-09-01T00:22:39;29.75;;;22.30;;
19800;SDS011;10060;48.274;12.214;2022-09-01T00:25:41;33.70;;;24.60;;
19800;SDS011;10060;48.274;12.214;2022-09-01T00:28:43;31.77;;;23.98;;
19800;SDS011;10060;48.274;12.214;2022-09-01T00:31:46;37.50;;;24.85;;
19800;SDS011;10060;48.274;12.214;2022-09-01T00:34:49;34.65;;;23.42;;
19800;SDS011;10060;48.274;12.214;2022-09-01T00:37:51;33.38;;;24.25;;
19800;SDS011;10060;48.274;12.214;2022-09-01T00:40:53;33.30;;;25.00;;
19800;SDS011;10060;48.274;12.214;2022-09-01T00:43:56;36.40;;;25.35;;
19800;SDS011;10060;48.274;12.214;2022-09-01T00:46:59;37.25;;;25.50;;
19800;SDS011;10060;48.274;12.214;2022-09-01T00:50:03;34.97;;;25.02;;
19800;SDS011;10060;48.274;12.214;2022-09-01T00:53:06;36.15;;;25.40;;
19800;SDS011;10060;48.274;12.214;2022-09-01T00:56:09;34.88;;;25.77;;
19800;SDS011;10060;48.274;12.214;2022-09-01T00:59:11;36.33;;;26.23;;
19800;SDS011;10060;48.274;12.214;2022-09-01T01:02:14;34.42;;;25.27;;
19800;SDS011;10060;48.274;12.214;2022-09-01T01:05:17;34.13;;;25.40;;
19800;SDS011;10060;48.274;12.214;2022-09-01T01:08:22;33.10;;;24.42;;
19800;SDS011;10060;48.274;12.214;2022-09-01T01:11:30;35.40;;;24.88;;
19800;SDS011;10060;48.274;12.214;2022-09-01T01:14:33;37.33;;;26.30;;
19800;SDS011;10060;48.274;12.214;2022-09-01T01:17:36;36.80;;;26.65;;
19800;SDS011;10060;48.274;12.214;2022-09-01T01:20:39;35.10;;;25.02;;
19800;SDS011;10060;48.274;12.214;2022-09-01T01:24:05;33.22;;;24.17;;
19800;SDS011;10060;48.274;12.214;2022-09-01T01:27:10;36.40;;;23.95;;
19800;SDS011;10060;48.274;12.214;2022-09-01T01:30:13;34.20;;;24.85;;
19800;SDS011;10060;48.274;12.214;2022-09-01T01:33:17;36.85;;;25.08;;
19800;SDS011;10060;48.274;12.214;2022-09-01T01:36:20;36.83;;;25.48;;
19800;SDS011;10060;48.274;12.214;2022-09-01T01:39:31;34.97;;;24.95;;
19800;SDS011;10060;48.274;12.214;2022-09-01T01:42:34;35.70;;;25.65;;
19800;SDS011;10060;48.274;12.214;2022-09-01T01:45:36;37.10;;;25.88;;
19800;SDS011;10060;48.274;12.214;2022-09-01T01:48:39;36.75;;;25.33;;
19800;SDS011;10060;48.274;12.214;2022-09-01T01:51:41;33.63;;;25.33;;
19800;SDS011;10060;48.274;12.214;2022-09-01T01:54:44;35.30;;;25.60;;
19800;SDS011;10060;48.274;12.214;2022-09-01T01:57:47;32.17;;;24.25;;
19800;SDS011;10060;48.274;12.214;2022-09-01T02:00:51;35.33;;;25.08;;
19800;SDS011;10060;48.274;12.214;2022-09-01T02:03:54;33.38;;;25.00;;
19800;SDS011;10060;48.274;12.214;2022-09-01T02:06:56;36.17;;;24.88;;
19800;SDS011;10060;48.274;12.214;2022-09-01T02:09:58;37.08;;;24.33;;
19800;SDS011;10060;48.274;12.214;2022-09-01T02:13:02;36.63;;;25.50;;
19800;SDS011;10060;48.274;12.214;2022-09-01T02:16:07;33.15;;;23.98;;
19800;SDS011;10060;48.274;12.214;2022-09-01T02:19:11;35.58;;;24.42;;
19800;SDS011;10060;48.274;12.214;2022-09-01T02:22:13;36.55;;;26.08;;
19800;SDS011;10060;48.274;12.214;2022-09-01T02:25:18;32.40;;;23.75;;
19800;SDS011;10060;48.274;12.214;2022-09-01T02:28:23;34.95;;;24.50;;
19800;SDS011;10060;48.274;12.214;2022-09-01T02:31:26;32.40;;;22.77;;
19800;SDS011;10060;48.274;12.214;2022-09-01T02:34:28;30.42;;;22.13;;
19800;SDS011;10060;48.274;12.214;2022-09-01T02:37:30;29.45;;;21.45;;
19800;SDS011;10060;48.274;12.214;2022-09-01T02:40:33;29.48;;;21.52;;
19800;SDS011;10060;48.274;12.214;2022-09-01T02:43:41;30.67;;;23.05;;
19800;SDS011;10060;48.274;12.214;2022-09-01T02:46:45;32.92;;;22.58;;
19800;SDS011;10060;48.274;12.214;2022-09-01T02:49:48;31.00;;;23.02;;
19800;SDS011;10060;48.274;12.214;2022-09-01T02:52:50;33.00;;;22.58;;
19800;SDS011;10060;48.274;12.214;2022-09-01T02:55:53;30.58;;;22.80;;
19800;SDS011;10060;48.274;12.214;2022-09-01T02:58:59;27.67;;;22.35;;
19800;SDS011;10060;48.274;12.214;2022-09-01T03:02:02;28.75;;;21.23;;
19800;SDS011;10060;48.274;12.214;2022-09-01T03:05:06;31.80;;;22.10;;
19800;SDS011;10060;48.274;12.214;2022-09-01T03:08:09;34.17;;;22.05;;
19800;SDS011;10060;48.274;12.214;2022-09-01T03:11:15;28.60;;;22.13;;
19800;SDS011;10060;48.274;12.214;2022-09-01T03:14:20;31.63;;;22.40;;
19800;SDS011;10060;48.274;12.214;2022-09-01T03:17:23;32.17;;;23.00;;
19800;SDS011;10060;48.274;12.214;2022-09-01T03:20:25;31.88;;;22.48;;
19800;SDS011;10060;48.274;12.214;2022-09-01T03:23:29;29.98;;;22.85;;
19800;SDS011;10060;48.274;12.214;2022-09-01T03:26:32;33.08;;;23.85;;
19800;SDS011;10060;48.274;12.214;2022-09-01T03:29:36;32.58;;;24.92;;
19800;SDS011;10060;48.274;12.214;2022-09-01T03:32:38;31.20;;;22.60;;
19800;SDS011;10060;48.274;12.214;2022-09-01T03:35:41;37.83;;;26.80;;
19800;SDS011;10060;48.274;12.214;2022-09-01T03:38:43;36.72;;;26.17;;
19800;SDS011;10060;48.274;12.214;2022-09-01T03:41:47;34.13;;;24.90;;
19800;SDS011;10060;48.274;12.214;2022-09-01T03:44:51;37.67;;;26.33;;
19800;SDS011;10060;48.274;12.214;2022-09-01T03:47:55;35.95;;;25.27;;
19800;SDS011;10060;48.274;12.214;2022-09-01T03:50:58;37.25;;;24.20;;
19800;SDS011;10060;48.274;12.214;2022-09-01T03:54:01;32.55;;;23.40;;
19800;SDS011;10060;48.274;12.214;2022-09-01T03:57:04;32.83;;;23.95;;
19800;SDS011;10060;48.274;12.214;2022-09-01T04:00:10;33.08;;;22.98;;
19800;SDS011;10060;48.274;12.214;2022-09-01T04:03:20;31.50;;;22.83;;
19800;SDS011;10060;48.274;12.214;2022-09-01T04:06:22;30.55;;;22.65;;
19800;SDS011;10060;48.274;12.214;2022-09-01T04:09:25;31.35;;;22.90;;
19800;SDS011;10060;48.274;12.214;2022-09-01T04:12:27;32.38;;;23.45;;
19800;SDS011;10060;48.274;12.214;2022-09-01T04:15:31;31.77;;;22.98;;
19800;SDS011;10060;48.274;12.214;2022-09-01T04:18:33;31.48;;;23.42;;
19800;SDS011;10060;48.274;12.214;2022-09-01T04:21:34;33.80;;;23.65;;
19800;SDS011;10060;48.274;12.214;2022-09-01T04:24:37;34.05;;;23.63;;
19800;SDS011;10060;48.274;12.214;2022-09-01T04:27:41;33.30;;;24.35;;
19800;SDS011;10060;48.274;12.214;2022-09-01T04:30:44;32.92;;;23.58;;
19800;SDS011;10060;48.274;12.214;2022-09-01T04:33:48;36.85;;;24.27;;
19800;SDS011;10060;48.274;12.214;2022-09-01T04:36:51;37.85;;;23.98;;
19800;SDS011;10060;48.274;12.214;2022-09-01T04:39:55;40.83;;;25.23;;
19800;SDS011;10060;48.274;12.214;2022-09-01T04:42:57;36.95;;;25.42;;
19800;SDS011;10060;48.274;12.214;2022-09-01T04:46:01;34.60;;;24.20;;
19800;SDS011;10060;48.274;12.214;2022-09-01T04:49:04;36.45;;;25.38;;
19800;SDS011;10060;48.274;12.214;2022-09-01T04:52:09;35.08;;;25.10;;
19800;SDS011;10060;48.274;12.214;2022-09-01T04:55:13;37.08;;;26.60;;
19800;SDS011;10060;48.274;12.214;2022-09-01T04:58:17;33.00;;;23.75;;
19800;SDS011;10060;48.274;12.214;2022-09-01T05:01:21;34.70;;;24.50;;
19800;SDS011;10060;48.274;12.214;2022-09-01T05:04:25;37.92;;;25.75;;
19800;SDS011;10060;48.274;12.214;2022-09-01T05:07:27;37.05;;;24.60;;
19800;SDS011;10060;48.274;12.214;2022-09-01T05:10:29;39.28;;;24.60;;
19800;SDS011;10060;48.274;12.214;2022-09-01T05:13:33;34.17;;;24.35;;
19800;SDS011;10060;48.274;12.214;2022-09-01T05:16:39;32.95;;;22.55;;
19800;SDS011;10060;48.274;12.214;2022-09-01T05:19:42;34.00;;;23.33;;
19800;SDS011;10060;48.274;12.214;2022-09-01T05:22:46;36.08;;;23.52;;
19800;SDS011;10060;48.274;12.214;2022-09-01T05:25:49;34.15;;;23.80;;
19800;SDS011;10060;48.274;12.214;2022-09-01T05:28:54;32.17;;;23.17;;
19800;SDS011;10060;48.274;12.214;2022-09-01T05:31:58;33.72;;;23.73;;
19800;SDS011;10060;48.274;12.214;2022-09-01T05:35:05;36.30;;;24.75;;
19800;SDS011;10060;48.274;12.214;2022-09-01T05:38:08;30.73;;;22.42;;
19800;SDS011;10060;48.274;12.214;2022-09-01T05:41:12;33.83;;;24.88;;
19800;SDS011;10060;48.274;12.214;2022-09-01T05:44:15;35.70;;;24.63;;
19800;SDS011;10060;48.274;12.214;2022-09-01T05:47:18;34.47;;;23.77;;
19800;SDS011;10060;48.274;12.214;2022-09-01T05:50:22;34.13;;;23.95;;
19800;SDS011;10060;48.274;12.214;2022-09-01T05:53:26;34.60;;;24.55;;
19800;SDS011;10060;48.274;12.214;2022-09-01T05:56:30;32.13;;;22.48;;
19800;SDS011;10060;48.274;12.214;2022-09-01T05:59:32;37.78;;;24.13;;
19800;SDS011;10060;48.274;12.214;2022-09-01T06:02:36;34.25;;;24.83;;
19800;SDS011;10060;48.274;12.214;2022-09-01T06:05:39;36.67;;;24.33;;
19800;SDS011;10060;48.274;12.214;2022-09-01T06:08:44;32.65;;;23.95;;
19800;SDS011;10060;48.274;12.214;2022-09-01T06:11:48;43.72;;;25.08;;
19800;SDS011;10060;48.274;12.214;2022-09-01T06:14:51;37.63;;;25.08;;
19800;SDS011;10060;48.274;12.214;2022-09-01T07:34:24;32.92;;;22.48;;
19800;SDS011;10060;48.274;12.214;2022-09-01T07:37:26;29.38;;;21.20;;
19800;SDS011;10060;48.274;12.214;2022-09-01T07:40:28;32.03;;;21.38;;
19800;SDS011;10060;48.274;12.214;2022-09-01T07:43:30;27.88;;;21.00;;
19800;SDS011;10060;48.274;12.214;2022-09-01T07:46:33;26.33;;;20.13;;
19800;SDS011;10060;48.274;12.214;2022-09-01T07:49:36;27.70;;;19.70;;
19800;SDS011;10060;48.274;12.214;2022-09-01T07:52:38;26.90;;;18.80;;
19800;SDS011;10060;48.274;12.214;2022-09-01T07:55:43;22.10;;;17.30;;
19800;SDS011;10060;48.274;12.214;2022-09-01T07:58:46;22.98;;;16.13;;
19800;SDS011;10060;48.274;12.214;2022-09-01T08:01:48;22.17;;;16.05;;
19800;SDS011;10060;48.274;12.214;2022-09-01T08:04:52;20.35;;;15.57;;
19800;SDS011;10060;48.274;12.214;2022-09-01T08:07:55;18.15;;;14.27;;
19800;SDS011;10060;48.274;12.214;2022-09-01T08:10:57;20.02;;;13.55;;
19800;SDS011;10060;48.274;12.214;2022-09-01T08:13:59;18.48;;;14.20;;
19800;SDS011;10060;48.274;12.214;2022-09-01T08:17:02;15.70;;;12.98;;
19800;SDS011;10060;48.274;12.214;2022-09-01T08:20:06;18.58;;;13.50;;
19800;SDS011;10060;48.274;12.214;2022-09-01T08:23:08;12.82;;;10.82;;
19800;SDS011;10060;48.274;12.214;2022-09-01T08:26:11;15.02;;;11.27;;
19800;SDS011;10060;48.274;12.214;2022-09-01T08:29:14;11.95;;;9.82;;
19800;SDS011;10060;48.274;12.214;2022-09-01T08:32:16;11.50;;;9.43;;
19800;SDS011;10060;48.274;12.214;2022-09-01T08:35:21;10.88;;;9.77;;
19800;SDS011;10060;48.274;12.214;2022-09-01T08:38:23;12.65;;;9.73;;
19800;SDS011;10060;48.274;12.214;2022-09-01T08:41:28;12.88;;;9.75;;
19800;SDS011;10060;48.274;12.214;2022-09-01T08:44:34;8.55;;;7.65;;
19800;SDS011;10060;48.274;12.214;2022-09-01T08:47:41;9.68;;;8.38;;
19800;SDS011;10060;48.274;12.214;2022-09-01T08:50:46;10.15;;;9.10;;
19800;SDS011;10060;48.274;12.214;2022-09-01T08:53:51;12.45;;;8.98;;
19800;SDS011;10060;48.274;12.214;2022-09-01T08:56:58;8.57;;;7.70;;
19800;SDS011;10060;48.274;12.214;2022-09-01T09:00:03;9.93;;;8.48;;
19800;SDS011;10060;48.274;12.214;2022-09-01T09:03:10;10.98;;;8.48;;
19800;SDS011;10060;48.274;12.214;2022-09-01T09:06:16;9.55;;;7.03;;
19800;SDS011;10060;48.274;12.214;2022-09-01T09:09:18;6.95;;;6.25;;
19800;SDS011;10060;48.274;12.214;2022-09-01T09:12:31;7.93;;;6.90;;
19800;SDS011;10060;48.274;12.214;2022-09-01T09:15:37;9.77;;;7.07;;
19800;SDS011;10060;48.274;12.214;2022-09-01T09:18:42;11.95;;;6.82;;
19800;SDS011;10060;48.274;12.214;2022-09-01T09:21:48;7.95;;;6.97;;
19800;SDS011;10060;48.274;12.214;2022-09-01T09:24:51;8.13;;;7.32;;
19800;SDS011;10060;48.274;12.214;2022-09-01T09:27:54;9.77;;;8.00;;
19800;SDS011;10060;48.274;12.214;2022-09-01T09:34:17;13.23;;;7.80;;
19800;SDS011;10060;48.274;12.214;2022-09-01T09:37:32;8.80;;;7.55;;
19800;SDS011;10060;48.274;12.214;2022-09-01T09:40:34;15.07;;;7.70;;
19800;SDS011;10060;48.274;12.214;2022-09-01T09:43:37;7.28;;;6.57;;
19800;SDS011;10060;48.274;12.214;2022-09-01T09:46:44;7.55;;;6.63;;
19800;SDS011;10060;48.274;12.214;2022-09-01T09:49:46;8.10;;;6.43;;
19800;SDS011;10060;48.274;12.214;2022-09-01T09:52:50;9.45;;;6.80;;
19800;SDS011;10060;48.274;12.214;2022-09-01T09:55:54;8.20;;;7.00;;
19800;SDS011;10060;48.274;12.214;2022-09-01T09:58:57;10.50;;;9.23;;
19800;SDS011;10060;48.274;12.214;2022-09-01T10:02:12;12.48;;;9.43;;
19800;SDS011;10060;48.274;12.214;2022-09-01T10:05:26;10.20;;;8.90;;
19800;SDS011;10060;48.274;12.214;2022-09-01T10:08:38;9.40;;;8.50;;
19800;SDS011;10060;48.274;12.214;2022-09-01T10:11:44;10.70;;;8.93;;
19800;SDS011;10060;48.274;12.214;2022-09-01T10:14:50;9.30;;;8.40;;
19800;SDS011;10060;48.274;12.214;2022-09-01T10:17:53;10.38;;;7.75;;
19800;SDS011;10060;48.274;12.214;2022-09-01T10:20:57;12.65;;;7.25;;
19800;SDS011;10060;48.274;12.214;2022-09-01T10:24:03;7.82;;;7.13;;
19800;SDS011;10060;48.274;12.214;2022-09-01T10:27:10;9.65;;;7.63;;
19800;SDS011;10060;48.274;12.214;2022-09-01T10:30:13;8.50;;;6.72;;
19800;SDS011;10060;48.274;12.214;2022-09-01T10:33:16;6.25;;;4.63;;
19800;SDS011;10060;48.274;12.214;2022-09-01T10:36:19;4.90;;;4.50;;
19800;SDS011;10060;48.274;12.214;2022-09-01T10:39:23;5.40;;;3.80;;
19800;SDS011;10060;48.274;12.214;2022-09-01T10:42:25;5.45;;;4.95;;
19800;SDS011;10060;48.274;12.214;2022-09-01T10:45:31;5.60;;;5.10;;
19800;SDS011;10060;48.274;12.214;2022-09-01T10:48:34;7.55;;;5.60;;
19800;SDS011;10060;48.274;12.214;2022-09-01T10:51:40;5.90;;;4.22;;
19800;SDS011;10060;48.274;12.214;2022-09-01T10:54:55;5.05;;;3.63;;
19800;SDS011;10060;48.274;12.214;2022-09-01T11:11:25;6.07;;;4.20;;
19800;SDS011;10060;48.274;12.214;2022-09-01T11:14:30;4.50;;;4.10;;
19800;SDS011;10060;48.274;12.214;2022-09-01T11:17:35;4.90;;;4.13;;
19800;SDS011;10060;48.274;12.214;2022-09-01T11:20:38;4.35;;;3.95;;
19800;SDS011;10060;48.274;12.214;2022-09-01T11:23:41;3.88;;;3.58;;
19800;SDS011;10060;48.274;12.214;2022-09-01T11:26:46;4.60;;;3.45;;
19800;SDS011;10060;48.274;12.214;2022-09-01T11:29:50;4.90;;;2.90;;
19800;SDS011;10060;48.274;12.214;2022-09-01T11:32:56;2.90;;;2.55;;
19800;SDS011;10060;48.274;12.214;2022-09-01T11:36:00;4.10;;;2.60;;
19800;SDS011;10060;48.274;12.214;2022-09-01T11:39:05;4.10;;;3.00;;
19800;SDS011;10060;48.274;12.214;2022-09-01T11:42:10;3.65;;;3.35;;
19800;SDS011;10060;48.274;12.214;2022-09-01T11:45:14;4.63;;;3.38;;
19800;SDS011;10060;48.274;12.214;2022-09-01T11:48:17;3.92;;;3.35;;
19800;SDS011;10060;48.274;12.214;2022-09-01T11:51:19;4.32;;;3.30;;
19800;SDS011;10060;48.274;12.214;2022-09-01T11:54:21;3.92;;;3.55;;
19800;SDS011;10060;48.274;12.214;2022-09-01T11:57:27;4.75;;;4.35;;
19800;SDS011;10060;48.274;12.214;2022-09-01T12:00:30;5.38;;;3.40;;
19800;SDS011;10060;48.274;12.214;2022-09-01T12:03:35;6.15;;;3.72;;
19800;SDS011;10060;48.274;12.214;2022-09-01T12:06:38;5.45;;;3.45;;
19800;SDS011;10060;48.274;12.214;2022-09-01T12:09:41;5.38;;;3.47;;
19800;SDS011;10060;48.274;12.214;2022-09-01T12:12:45;8.55;;;4.38;;
19800;SDS011;10060;48.274;12.214;2022-09-01T12:15:52;4.32;;;3.35;;
19800;SDS011;10060;48.274;12.214;2022-09-01T12:18:55;3.00;;;2.28;;
19800;SDS011;10060;48.274;12.214;2022-09-01T12:21:59;3.50;;;2.50;;
19800;SDS011;10060;48.274;12.214;2022-09-01T12:25:02;2.65;;;2.13;;
19800;SDS011;10060;48.274;12.214;2022-09-01T12:28:05;2.53;;;2.33;;
19800;SDS011;10060;48.274;12.214;2022-09-01T12:31:11;3.50;;;2.38;;
19800;SDS011;10060;48.274;12.214;2022-09-01T12:37:33;3.50;;;2.85;;
19800;SDS011;10060;48.274;12.214;2022-09-01T12:40:35;3.92;;;2.80;;
19800;SDS011;10060;48.274;12.214;2022-09-01T12:43:39;5.15;;;3.10;;
19800;SDS011;10060;48.274;12.214;2022-09-01T12:46:42;2.90;;;2.58;;
19800;SDS011;10060;48.274;12.214;2022-09-01T12:49:46;5.75;;;2.85;;
19800;SDS011;10060;48.274;12.214;2022-09-01T12:52:48;3.97;;;2.97;;
19800;SDS011;10060;48.274;12.214;2022-09-01T12:55:56;4.95;;;2.75;;
19800;SDS011;10060;48.274;12.214;2022-09-01T12:59:05;2.88;;;2.38;;
19800;SDS011;10060;48.274;12.214;2022-09-01T13:02:26;3.40;;;2.45;;
19800;SDS011;10060;48.274;12.214;2022-09-01T13:05:29;3.65;;;2.53;;
19800;SDS011;10060;48.274;12.214;2022-09-01T13:08:33;3.83;;;2.00;;
19800;SDS011;10060;48.274;12.214;2022-09-01T13:11:36;4.50;;;2.83;;
19800;SDS011;10060;48.274;12.214;2022-09-01T13:14:39;4.65;;;2.13;;
19800;SDS011;10060;48.274;12.214;2022-09-01T13:17:41;4.07;;;2.38;;
19800;SDS011;10060;48.274;12.214;2022-09-01T13:20:43;2.67;;;2.10;;
19800;SDS011;10060;48.274;12.214;2022-09-01T13:23:46;2.78;;;2.10;;
19800;SDS011;10060;48.274;12.214;2022-09-01T13:26:48;5.10;;;2.42;;
19800;SDS011;10060;48.274;12.214;2022-09-01T13:29:56;5.20;;;2.17;;
19800;SDS011;10060;48.274;12.214;2022-09-01T13:32:58;4.38;;;2.97;;
19800;SDS011;10060;48.274;12.214;2022-09-01T13:36:01;4.45;;;3.15;;
19800;SDS011;10060;48.274;12.214;2022-09-01T13:39:03;3.30;;;2.33;;
19800;SDS011;10060;48.274;12.214;2022-09-01T13:42:05;2.15;;;1.75;;
19800;SDS011;10060;48.274;12.214;2022-09-01T13:45:09;4.22;;;2.13;;
19800;SDS011;10060;48.274;12.214;2022-09-01T13:48:13;3.25;;;2.30;;
19800;SDS011;10060;48.274;12.214;2022-09-01T13:51:22;1.92;;;1.77;;
19800;SDS011;10060;48.274;12.214;2022-09-01T13:54:25;10.13;;;2.42;;
19800;SDS011;10060;48.274;12.214;2022-09-01T13:57:27;2.05;;;1.85;;
19800;SDS011;10060;48.274;12.214;2022-09-01T14:00:31;3.08;;;2.20;;
19800;SDS011;10060;48.274;12.214;2022-09-01T14:03:35;3.00;;;1.77;;
19800;SDS011;10060;48.274;12.214;2022-09-01T14:06:38;2.65;;;1.98;;
19800;SDS011;10060;48.274;12.214;2022-09-01T14:09:40;2.28;;;2.00;;
19800;SDS011;10060;48.274;12.214;2022-09-01T14:12:42;3.33;;;2.10;;
19800;SDS011;10060;48.274;12.214;2022-09-01T14:15:47;2.88;;;2.22;;
19800;SDS011;10060;48.274;12.214;2022-09-01T14:18:50;2.95;;;2.13;;
19800;SDS011;10060;48.274;12.214;2022-09-01T14:21:53;3.00;;;2.08;;
19800;SDS011;10060;48.274;12.214;2022-09-01T14:24:56;1.70;;;1.60;;
19800;SDS011;10060;48.274;12.214;2022-09-01T14:27:59;2.30;;;2.10;;
19800;SDS011;10060;48.274;12.214;2022-09-01T14:31:07;3.05;;;1.75;;
19800;SDS011;10060;48.274;12.214;2022-09-01T14:34:09;3.28;;;2.08;;
19800;SDS011;10060;48.274;12.214;2022-09-01T14:37:11;2.22;;;2.03;;
19800;SDS011;10060;48.274;12.214;2022-09-01T14:40:14;3.15;;;1.88;;
19800;SDS011;10060;48.274;12.214;2022-09-01T14:43:17;3.97;;;1.85;;
19800;SDS011;10060;48.274;12.214;2022-09-01T14:46:21;2.22;;;2.00;;
19800;SDS011;10060;48.274;12.214;2022-09-01T14:49:24;2.95;;;2.45;;
19800;SDS011;10060;48.274;12.214;2022-09-01T14:52:27;3.30;;;2.20;;
19800;SDS011;10060;48.274;12.214;2022-09-01T14:55:29;3.50;;;2.28;;
19800;SDS011;10060;48.274;12.214;2022-09-01T14:58:32;2.08;;;1.90;;
19800;SDS011;10060;48.274;12.214;2022-09-01T15:01:35;4.50;;;2.10;;
19800;SDS011;10060;48.274;12.214;2022-09-01T15:04:37;2.17;;;1.60;;
19800;SDS011;10060;48.274;12.214;2022-09-01T15:07:41;2.35;;;2.03;;
19800;SDS011;10060;48.274;12.214;2022-09-01T15:10:43;3.42;;;2.28;;
19800;SDS011;10060;48.274;12.214;2022-09-01T15:13:46;3.20;;;2.60;;
19800;SDS011;10060;48.274;12.214;2022-09-01T15:16:52;6.57;;;2.20;;
19800;SDS011;10060;48.274;12.214;2022-09-01T15:19:54;2.92;;;2.00;;
19800;SDS011;10060;48.274;12.214;2022-09-01T15:23:17;2.25;;;1.98;;
19800;SDS011;10060;48.274;12.214;2022-09-01T15:26:20;3.50;;;1.60;;
19800;SDS011;10060;48.274;12.214;2022-09-01T15:29:22;2.47;;;2.10;;
19800;SDS011;10060;48.274;12.214;2022-09-01T15:32:25;2.60;;;2.10;;
19800;SDS011;10060;48.274;12.214;2022-09-01T15:35:28;2.42;;;2.13;;
19800;SDS011;10060;48.274;12.214;2022-09-01T15:38:30;2.03;;;1.70;;
19800;SDS011;10060;48.274;12.214;2022-09-01T15:41:33;2.22;;;2.00;;
19800;SDS011;10060;48.274;12.214;2022-09-01T15:44:36;2.65;;;2.28;;
19800;SDS011;10060;48.274;12.214;2022-09-01T15:47:39;2.45;;;2.22;;
19800;SDS011;10060;48.274;12.214;2022-09-01T15:50:43;2.97;;;2.47;;
19800;SDS011;10060;48.274;12.214;2022-09-01T15:53:45;4.50;;;2.42;;
19800;SDS011;10060;48.274;12.214;2022-09-01T15:56:47;2.92;;;2.38;;
19800;SDS011;10060;48.274;12.214;2022-09-01T15:59:49;3.75;;;2.30;;
19800;SDS011;10060;48.274;12.214;2022-09-01T16:02:53;4.63;;;2.78;;
19800;SDS011;10060;48.274;12.214;2022-09-01T16:05:55;3.88;;;2.15;;
19800;SDS011;10060;48.274;12.214;2022-09-01T16:08:57;4.95;;;2.58;;
19800;SDS011;10060;48.274;12.214;2022-09-01T16:11:59;2.50;;;2.30;;
19800;SDS011;10060;48.274;12.214;2022-09-01T16:15:01;1.95;;;1.75;;
19800;SDS011;10060;48.274;12.214;2022-09-01T16:18:09;2.20;;;2.00;;
19800;SDS011;10060;48.274;12.214;2022-09-01T16:21:13;3.08;;;2.20;;
19800;SDS011;10060;48.274;12.214;2022-09-01T16:24:18;2.45;;;2.10;;
19800;SDS011;10060;48.274;12.214;2022-09-01T16:27:22;2.25;;;2.00;;
19800;SDS011;10060;48.274;12.214;2022-09-01T16:30:25;5.53;;;2.80;;
19800;SDS011;10060;48.274;12.214;2022-09-01T16:33:29;2.10;;;1.70;;
19800;SDS011;10060;48.274;12.214;2022-09-01T16:36:33;2.30;;;1.83;;
19800;SDS011;10060;48.274;12.214;2022-09-01T16:39:39;3.47;;;1.80;;
19800;SDS011;10060;48.274;12.214;2022-09-01T16:42:47;2.00;;;1.80;;
19800;SDS011;10060;48.274;12.214;2022-09-01T16:45:54;2.35;;;1.90;;
19800;SDS011;10060;48.274;12.214;2022-09-01T16:49:03;2.33;;;2.08;;
19800;SDS011;10060;48.274;12.214;2022-09-01T16:52:12;2.60;;;1.83;;
19800;SDS011;10060;48.274;12.214;2022-09-01T16:55:17;2.35;;;2.10;;
19800;SDS011;10060;48.274;12.214;2022-09-01T16:58:24;3.55;;;2.70;;
19800;SDS011;10060;48.274;12.214;2022-09-01T17:01:30;3.55;;;2.88;;
19800;SDS011;10060;48.274;12.214;2022-09-01T17:04:39;3.13;;;2.00;;
19800;SDS011;10060;48.274;12.214;2022-09-01T17:07:46;2.58;;;2.03;;
19800;SDS011;10060;48.274;12.214;2022-09-01T17:10:50;2.63;;;1.80;;
19800;SDS011;10060;48.274;12.214;2022-09-01T17:13:54;2.10;;;1.85;;
19800;SDS011;10060;48.274;12.214;2022-09-01T17:17:00;2.00;;;1.80;;
19800;SDS011;10060;48.274;12.214;2022-09-01T17:20:05;3.25;;;2.10;;
19800;SDS011;10060;48.274;12.214;2022-09-01T17:23:09;3.55;;;1.95;;
19800;SDS011;10060;48.274;12.214;2022-09-01T17:26:16;2.58;;;2.10;;
19800;SDS011;10060;48.274;12.214;2022-09-01T17:29:21;3.67;;;2.15;;
19800;SDS011;10060;48.274;12.214;2022-09-01T17:32:36;2.40;;;2.20;;
19800;SDS011;10060;48.274;12.214;2022-09-01T17:35:44;5.07;;;2.40;;
19800;SDS011;10060;48.274;12.214;2022-09-01T17:38:53;3.63;;;2.30;;
19800;SDS011;10060;48.274;12.214;2022-09-01T17:42:02;3.20;;;2.30;;
19800;SDS011;10060;48.274;12.214;2022-09-01T17:45:09;3.05;;;2.05;;
19800;SDS011;10060;48.274;12.214;2022-09-01T17:48:13;2.25;;;2.05;;
19800;SDS011;10060;48.274;12.214;2022-09-01T17:51:20;3.65;;;2.25;;
19800;SDS011;10060;48.274;12.214;2022-09-01T17:54:28;2.78;;;2.08;;
19800;SDS011;10060;48.274;12.214;2022-09-01T17:57:33;5.38;;;2.20;;
19800;SDS011;10060;48.274;12.214;2022-09-01T18:00:38;4.97;;;2.38;;
19800;SDS011;10060;48.274;12.214;2022-09-01T18:03:44;3.33;;;2.35;;
19800;SDS011;10060;48.274;12.214;2022-09-01T18:06:55;3.40;;;2.40;;
19800;SDS011;10060;48.274;12.214;2022-09-01T18:10:01;4.30;;;2.20;;
19800;SDS011;10060;48.274;12.214;2022-09-01T18:13:04;2.38;;;2.08;;
19800;SDS011;10060;48.274;12.214;2022-09-01T18:16:10;2.65;;;2.45;;
19800;SDS011;10060;48.274;12.214;2022-09-01T18:19:14;3.20;;;2.33;;
19800;SDS011;10060;48.274;12.214;2022-09-01T18:22:19;3.70;;;2.22;;
19800;SDS011;10060;48.274;12.214;2022-09-01T18:25:22;3.20;;;2.80;;
19800;SDS011;10060;48.274;12.214;2022-09-01T18:28:25;3.80;;;2.53;;
19800;SDS011;10060;48.274;12.214;2022-09-01T18:31:34;2.90;;;2.50;;
19800;SDS011;10060;48.274;12.214;2022-09-01T18:34:46;2.65;;;2.30;;
19800;SDS011;10060;48.274;12.214;2022-09-01T18:41:22;2.50;;;2.30;;
19800;SDS011;10060;48.274;12.214;2022-09-01T18:44:31;5.28;;;3.00;;
19800;SDS011;10060;48.274;12.214;2022-09-01T18:47:43;3.28;;;2.30;;
19800;SDS011;10060;48.274;12.214;2022-09-01T18:50:48;3.35;;;2.60;;
19800;SDS011;10060;48.274;12.214;2022-09-01T18:53:54;2.65;;;2.42;;
19800;SDS011;10060;48.274;12.214;2022-09-01T18:57:00;5.88;;;2.50;;
19800;SDS011;10060;48.274;12.214;2022-09-01T19:00:06;2.95;;;2.42;;
19800;SDS011;10060;48.274;12.214;2022-09-01T19:03:10;2.55;;;2.17;;
19800;SDS011;10060;48.274;12.214;2022-09-01T19:06:26;2.72;;;2.42;;
19800;SDS011;10060;48.274;12.214;2022-09-01T19:09:31;4.47;;;2.97;;
19800;SDS011;10060;48.274;12.214;2022-09-01T19:12:37;3.65;;;2.47;;
19800;SDS011;10060;48.274;12.214;2022-09-01T19:15:44;2.75;;;2.40;;
19800;SDS011;10060;48.274;12.214;2022-09-01T19:18:51;4.05;;;2.45;;
19800;SDS011;10060;48.274;12.214;2022-09-01T19:21:56;2.88;;;2.60;;
19800;SDS011;10060;48.274;12.214;2022-09-01T19:24:58;3.45;;;2.47;;
19800;SDS011;10060;48.274;12.214;2022-09-01T19:28:19;4.78;;;2.85;;
19800;SDS011;10060;48.274;12.214;2022-09-01T19:31:24;3.97;;;2.83;;
19800;SDS011;10060;48.274;12.214;2022-09-01T19:34:29;4.00;;;3.25;;
19800;SDS011;10060;48.274;12.214;2022-09-01T19:37:32;3.35;;;2.83;;
19800;SDS011;10060;48.274;12.214;2022-09-01T19:40:35;3.40;;;3.10;;